Time;durP1;ratioP1;P1;durP2;ratioP2;P2;SDS_P1;SDS_P2;PMS_P1;PMS_P2;Temp;Humidity;BMP_temperature;BMP_pressure;BME280_temperature;BME280_humidity;BME280_pressure;Samples;Min_cycle;Max_cycle;Signal;HPM_P1;HPM_P2
2023/08/18 00:01:33;;;;;;;27.55;18.60;;;19.10;99.90;;;19.24;81.73;100701.84;5030357;28;21139;-89
2023/08/18 00:04:02;;;;;;;27.83;18.42;;;19.10;99.90;;;19.25;82.17;100701.59;5049421;28;21038;-89
2023/08/18 00:06:29;;;;;;;28.50;17.70;;;19.10;99.90;;;19.23;82.32;100708.34;5050342;28;20048;-89
2023/08/18 00:08:56;;;;;;;29.40;18.30;;;19.00;99.90;;;19.25;82.28;100698.06;5029686;28;20554;-89
2023/08/18 00:11:24;;;;;;;31.00;19.13;;;19.10;99.90;;;19.25;81.83;100701.59;5037743;28;20037;-89
2023/08/18 00:13:51;;;;;;;27.80;18.23;;;19.10;99.90;;;19.22;81.92;100707.50;5035328;28;20073;-89
2023/08/18 00:16:18;;;;;;;32.80;19.77;;;19.10;99.90;;;19.23;81.97;100702.94;5033529;28;20203;-89
2023/08/18 00:18:45;;;;;;;37.53;20.48;;;19.10;99.90;;;19.23;82.35;100702.94;5050008;28;20120;-89
2023/08/18 00:21:14;;;;;;;36.45;19.08;;;19.00;99.90;;;19.26;81.90;100702.41;5048381;28;20068;-89
2023/08/18 00:23:44;;;;;;;35.00;19.08;;;19.10;99.90;;;19.26;81.77;100702.41;5035359;28;20044;-89
2023/08/18 00:26:11;;;;;;;32.58;19.73;;;19.10;99.90;;;19.12;82.92;100712.88;5034633;28;20102;-89
2023/08/18 00:28:39;;;;;;;39.40;23.15;;;19.00;99.90;;;19.06;83.11;100705.81;5048069;28;20445;-89
2023/08/18 00:31:06;;;;;;;33.90;20.75;;;19.00;99.90;;;19.03;83.80;100709.88;5050148;28;20064;-89
2023/08/18 00:33:34;;;;;;;37.10;22.70;;;18.90;99.90;;;18.91;83.94;100706.53;5038307;28;20053;-90
2023/08/18 00:36:01;;;;;;;38.83;22.17;;;18.80;99.90;;;18.89;84.30;100707.88;5019038;28;20038;-89
2023/08/18 00:38:31;;;;;;;35.60;22.45;;;18.80;99.90;;;18.91;84.32;100703.81;5012490;28;20046;-90
2023/08/18 00:40:59;;;;;;;37.95;22.92;;;18.80;99.90;;;18.90;84.75;100706.81;5017174;28;20045;-89
2023/08/18 00:43:26;;;;;;;40.83;23.95;;;18.80;99.90;;;18.92;84.10;100708.16;5051515;28;20037;-89
2023/08/18 00:45:54;;;;;;;33.15;21.45;;;18.80;99.90;;;18.90;84.43;100707.63;5043063;28;20084;-90
2023/08/18 00:48:24;;;;;;;40.80;22.57;;;18.80;99.90;;;18.95;84.85;100706.84;5034656;28;20041;-89
2023/08/18 00:50:53;;;;;;;38.45;22.75;;;18.80;99.90;;;18.94;84.31;100702.50;5039403;28;20501;-89
2023/08/18 00:53:21;;;;;;;38.03;22.55;;;18.80;99.90;;;18.92;84.58;100710.03;5034833;28;20048;-89
2023/08/18 00:55:52;;;;;;;39.88;21.67;;;18.80;99.90;;;18.95;84.73;100710.34;5018179;28;20111;-89
2023/08/18 00:58:20;;;;;;;33.72;21.77;;;18.80;99.90;;;18.92;84.36;100713.56;5022198;28;22013;-89
2023/08/18 01:00:49;;;;;;;31.08;20.70;;;18.80;99.90;;;18.94;84.67;100707.91;5032677;28;20527;-89
2023/08/18 01:03:16;;;;;;;33.67;21.30;;;18.80;99.90;;;18.98;84.68;100701.72;5031259;28;20039;-89
2023/08/18 01:05:44;;;;;;;33.45;22.38;;;18.80;99.90;;;18.93;84.45;100709.78;5029820;28;20049;-89
2023/08/18 01:08:12;;;;;;;35.03;22.30;;;18.80;99.90;;;18.95;84.66;100706.84;5031728;28;20124;-90
2023/08/18 01:10:53;;;;;;;33.55;21.08;;;18.80;99.90;;;18.86;84.82;100714.59;5033091;28;20067;-89
2023/08/18 01:13:28;;;;;;;;;;;18.70;99.90;;;18.85;85.09;100707.56;5040723;28;20042;-89
2023/08/18 01:16:00;;;;;;;32.33;20.10;;;18.70;99.90;;;18.83;85.88;100698.91;5030125;28;21415;-89
2023/08/18 01:18:29;;;;;;;31.58;20.70;;;18.70;99.90;;;18.84;85.38;100695.16;5032621;28;20048;-89
2023/08/18 01:20:59;;;;;;;37.40;21.80;;;18.70;99.90;;;18.84;85.71;100689.75;5051875;28;20041;-90
2023/08/18 01:23:39;;;;;;;32.28;21.35;;;18.70;99.90;;;18.83;85.89;100682.69;5031885;28;20107;-89
2023/08/18 01:26:06;;;;;;;32.40;20.38;;;18.70;99.90;;;18.86;85.67;100687.56;5049107;28;20045;-89
2023/08/18 01:28:35;;;;;;;28.10;20.13;;;18.70;99.90;;;18.88;85.74;100690.00;5030970;28;20045;-89
2023/08/18 01:31:10;;;;;;;32.90;20.13;;;18.70;99.90;;;18.85;85.94;100688.66;5032120;28;20049;-90
2023/08/18 01:33:45;;;;;;;32.65;20.10;;;18.70;99.90;;;18.85;85.75;100675.16;5033293;28;20617;-89
2023/08/18 01:36:18;;;;;;;27.83;18.58;;;18.70;99.90;;;18.83;86.36;100677.28;5028904;28;20187;-90
2023/08/18 01:38:51;;;;;;;31.17;18.90;;;18.70;99.90;;;18.87;86.20;100678.38;5046263;28;20522;-90
2023/08/18 01:41:23;;;;;;;29.83;19.45;;;18.70;99.90;;;18.89;85.78;100668.16;5047877;28;20110;-89
2023/08/18 01:43:51;;;;;;;31.40;18.33;;;18.70;99.90;;;18.85;85.67;100669.75;5033076;28;20044;-89
2023/08/18 01:46:18;;;;;;;29.10;18.67;;;18.70;99.90;;;18.85;86.28;100660.81;5038969;28;20111;-89
2023/08/18 01:48:46;;;;;;;28.60;18.50;;;18.70;99.90;;;18.88;85.91;100661.09;5028334;28;20040;-90
2023/08/18 01:51:13;;;;;;;27.15;17.42;;;18.70;99.90;;;18.92;85.57;100664.09;5028913;28;20051;-89
2023/08/18 01:53:40;;;;;;;26.45;16.67;;;18.70;99.90;;;18.94;85.55;100662.78;5015253;28;20052;-89
2023/08/18 01:56:09;;;;;;;26.25;17.45;;;18.70;99.90;;;18.94;85.63;100660.06;5033347;28;20490;-89
2023/08/18 01:58:37;;;;;;;28.90;18.38;;;18.70;99.90;;;18.91;85.41;100668.69;5050380;28;20087;-89
2023/08/18 02:01:05;;;;;;;25.80;17.92;;;18.70;99.90;;;18.86;86.29;100663.25;5029193;28;20709;-89
2023/08/18 02:03:33;;;;;;;26.77;17.60;;;18.70;99.90;;;18.86;86.63;100659.75;5016370;28;20041;-89
2023/08/18 02:06:00;;;;;;;28.92;18.35;;;18.70;99.90;;;18.89;86.11;100654.63;5046325;28;20562;-89
2023/08/18 02:08:27;;;;;;;28.63;18.73;;;18.70;99.90;;;18.80;86.92;100655.38;5046195;28;20568;-89
2023/08/18 02:11:02;;;;;;;28.25;18.10;;;18.60;99.90;;;18.80;87.46;100644.59;5030775;28;20111;-89
2023/08/18 02:13:31;;;;;;;28.48;17.33;;;18.70;99.90;;;18.82;87.29;100653.22;5033227;28;20067;-90
2023/08/18 02:15:59;;;;;;;25.95;17.48;;;18.70;99.90;;;18.83;87.67;100650.25;5035626;28;20037;-89
2023/08/18 02:18:28;;;;;;;32.22;18.60;;;18.60;99.90;;;18.88;87.39;100650.28;5053647;28;22167;-90
2023/08/18 02:20:56;;;;;;;32.80;19.88;;;18.70;99.90;;;18.88;87.19;100644.06;5033142;28;20044;-90
2023/08/18 02:23:23;;;;;;;33.33;20.30;;;18.70;99.90;;;18.88;87.56;100652.19;5035089;28;20452;-90
2023/08/18 02:25:51;;;;;;;30.00;18.83;;;18.70;99.90;;;18.86;87.59;100646.22;5055671;28;20047;-90
2023/08/18 02:28:19;;;;;;;28.67;19.13;;;18.70;99.90;;;18.82;88.23;100648.63;5029788;28;20045;-89
2023/08/18 02:30:48;;;;;;;32.00;19.52;;;18.60;99.90;;;18.79;88.50;100643.78;5034232;28;20045;-90
2023/08/18 02:33:15;;;;;;;34.28;20.15;;;18.60;99.90;;;18.80;88.79;100640.00;5046183;28;20031;-89
2023/08/18 02:35:45;;;;;;;33.60;20.52;;;18.70;99.90;;;18.86;88.50;100636.22;5064673;28;20025;-89
2023/08/18 02:38:15;;;;;;;28.55;18.60;;;18.70;99.90;;;18.95;87.66;100648.19;5031855;28;20079;-89
2023/08/18 02:40:42;;;;;;;35.05;19.88;;;18.70;99.90;;;18.94;87.72;100637.63;5063572;28;20025;-89
2023/08/18 02:43:13;;;;;;;31.77;20.23;;;18.70;99.90;;;18.89;87.80;100641.13;5073557;28;20498;-89
2023/08/18 02:45:40;;;;;;;37.65;22.80;;;18.70;99.90;;;18.87;88.77;100642.44;5039829;28;20033;-90
2023/08/18 02:48:12;;;;;;;34.90;22.05;;;18.70;99.90;;;18.90;88.24;100631.94;5021292;28;20452;-89
2023/08/18 02:50:40;;;;;;;33.97;20.52;;;18.70;99.90;;;18.88;88.86;100630.56;5036424;28;20139;-90
2023/08/18 02:53:07;;;;;;;34.40;20.48;;;18.70;99.90;;;18.88;88.72;100635.97;5053100;28;20040;-89
2023/08/18 02:55:35;;;;;;;34.30;21.67;;;18.70;99.90;;;18.86;89.15;100630.81;5037828;28;20049;-90
2023/08/18 02:58:03;;;;;;;37.15;21.75;;;18.70;99.90;;;18.88;89.15;100636.78;5044889;28;20075;-90
2023/08/18 03:00:31;;;;;;;36.55;21.13;;;18.70;99.90;;;18.89;89.41;100638.41;5053184;28;20034;-89
2023/08/18 03:03:00;;;;;;;33.53;20.85;;;18.70;99.90;;;18.95;88.67;100628.44;5015949;28;20122;-89
2023/08/18 03:05:29;;;;;;;36.40;22.02;;;18.70;99.90;;;18.92;88.89;100631.66;5037399;28;20040;-89
2023/08/18 03:07:56;;;;;;;38.70;21.95;;;18.70;99.90;;;18.89;89.42;100633.00;5019182;28;20132;-90
2023/08/18 03:10:24;;;;;;;36.50;21.92;;;18.70;99.90;;;18.89;89.25;100633.00;5026261;28;20151;-89
2023/08/18 03:12:51;;;;;;;37.08;21.88;;;18.70;99.90;;;18.89;89.58;100630.31;5052141;28;20067;-90
2023/08/18 03:15:18;;;;;;;35.58;20.75;;;18.70;99.90;;;18.90;89.60;100634.63;5035198;28;20052;-90
2023/08/18 03:17:46;;;;;;;37.20;20.75;;;18.70;99.90;;;18.94;88.87;100635.75;5053066;28;20118;-89
2023/08/18 03:20:13;;;;;;;33.45;21.33;;;18.50;99.90;;;18.91;89.55;100632.75;5035855;28;20577;-89
2023/08/18 03:22:42;;;;;;;38.50;22.45;;;18.70;99.90;;;18.89;89.24;100638.41;5033137;28;20041;-89
2023/08/18 03:25:10;;;;;;;35.03;20.13;;;18.70;99.90;;;18.89;89.95;100643.81;5043637;28;20048;-89
2023/08/18 03:27:38;;;;;;;36.55;20.63;;;18.70;99.90;;;18.88;90.04;100641.38;5035621;28;20041;-90
2023/08/18 03:30:07;;;;;;;33.45;19.95;;;18.70;99.90;;;18.90;90.27;100637.34;5033338;28;20090;-89
2023/08/18 03:32:35;;;;;;;40.55;22.95;;;18.70;99.90;;;18.95;90.04;100637.38;5033514;28;20525;-89
2023/08/18 03:35:02;;;;;;;37.67;22.38;;;18.80;99.90;;;18.99;89.47;100626.84;5051073;28;20037;-89
2023/08/18 03:37:30;;;;;;;44.55;24.25;;;18.80;99.90;;;18.95;89.93;100636.56;5046605;28;20474;-89
2023/08/18 03:39:59;;;;;;;39.92;24.08;;;18.80;99.90;;;18.97;89.91;100640.59;5031089;28;20049;-90
2023/08/18 03:42:27;;;;;;;41.40;24.80;;;18.80;99.90;;;18.97;89.85;100639.78;5022476;28;20104;-90
2023/08/18 03:44:54;;;;;;;42.47;23.98;;;18.80;99.90;;;18.96;89.58;100632.75;5035895;28;20163;-89
2023/08/18 03:47:21;;;;;;;41.15;24.70;;;18.80;99.90;;;18.94;89.89;100633.03;5026219;28;20076;-90
2023/08/18 03:49:49;;;;;;;40.38;22.85;;;18.70;99.90;;;18.90;90.28;100640.03;5034880;28;20516;-89
2023/08/18 03:52:17;;;;;;;37.10;22.35;;;18.70;99.90;;;18.84;90.53;100630.28;5017236;28;20132;-89
2023/08/18 03:54:45;;;;;;;32.55;20.33;;;18.70;99.90;;;18.88;90.77;100631.38;5047409;28;20132;-90
2023/08/18 03:57:13;;;;;;;33.65;21.05;;;18.70;99.90;;;18.90;90.54;100642.75;5031295;28;20553;-89
2023/08/18 03:59:41;;;;;;;38.65;20.02;;;18.70;99.90;;;18.85;90.02;100631.91;5032222;28;22098;-90
2023/08/18 04:02:08;;;;;;;34.38;20.20;;;18.70;99.90;;;18.85;90.09;100637.31;5046499;28;20132;-89
2023/08/18 04:04:36;;;;;;;32.33;18.98;;;18.70;99.90;;;18.83;89.69;100630.53;5031239;28;20076;-89
2023/08/18 04:07:03;;;;;;;27.88;18.02;;;18.70;99.90;;;18.81;90.43;100633.50;5050676;28;20131;-89
2023/08/18 04:09:30;;;;;;;30.38;18.48;;;18.70;99.90;;;18.85;89.72;100637.31;5031889;28;20080;-90
2023/08/18 04:11:58;;;;;;;30.05;18.40;;;18.70;99.90;;;18.86;90.18;100644.34;5032925;28;20065;-89
2023/08/18 04:14:26;;;;;;;32.40;19.58;;;18.70;99.90;;;18.87;90.08;100645.97;5033196;28;20122;-90
2023/08/18 04:16:54;;;;;;;35.35;21.02;;;18.70;99.90;;;18.92;89.63;100643.28;5031108;28;20068;-89
2023/08/18 04:19:21;;;;;;;42.08;23.05;;;18.70;99.90;;;18.92;89.39;100637.88;5048137;28;20152;-89
2023/08/18 04:21:48;;;;;;;34.03;20.85;;;18.70;99.90;;;18.96;89.43;100646.28;5030073;28;20038;-89
2023/08/18 04:24:16;;;;;;;38.10;21.83;;;18.70;99.90;;;18.92;89.25;100637.88;5050370;28;22256;-90
2023/08/18 04:26:43;;;;;;;37.30;22.30;;;18.70;99.90;;;18.94;89.59;100641.16;5031046;28;20033;-89
2023/08/18 04:29:11;;;;;;;41.70;23.35;;;18.70;99.90;;;18.91;89.58;100632.75;5050987;28;20072;-89
2023/08/18 04:31:40;;;;;;;40.00;22.38;;;18.70;99.90;;;18.90;89.85;100634.63;5035252;28;20095;-89
2023/08/18 04:34:14;;;;;;;43.55;23.88;;;18.70;99.90;;;18.92;89.71;100628.97;5044331;28;20033;-89
2023/08/18 04:36:42;;;;;;;39.17;21.75;;;18.70;99.90;;;18.96;89.49;100624.66;5026800;28;20041;-89
2023/08/18 04:39:11;;;;;;;35.08;21.63;;;18.80;99.90;;;18.97;89.23;100624.38;5034272;28;20051;-90
2023/08/18 04:41:38;;;;;;;40.80;21.50;;;18.80;99.90;;;18.97;89.16;100618.97;5055405;28;20044;-89
2023/08/18 04:44:07;;;;;;;32.90;20.40;;;18.80;99.90;;;19.01;88.77;100625.50;5033944;28;20379;-89
2023/08/18 04:46:35;;;;;;;35.88;21.20;;;18.80;99.90;;;19.02;88.48;100623.59;5050852;28;20595;-89
2023/08/18 04:49:09;;;;;;;35.13;21.23;;;18.80;99.90;;;19.00;89.12;100626.56;5027432;28;20040;-89
2023/08/18 04:51:36;;;;;;;34.50;20.55;;;18.80;99.90;;;18.98;88.70;100626.03;5051256;28;20044;-90
2023/08/18 04:54:04;;;;;;;36.78;20.13;;;18.80;99.90;;;18.92;89.10;100624.38;5034509;28;20111;-88
2023/08/18 04:56:32;;;;;;;30.98;19.40;;;18.70;99.90;;;18.90;89.01;100629.22;5031230;28;20083;-86
2023/08/18 04:58:59;;;;;;;32.38;19.15;;;18.70;99.90;;;18.96;89.08;100627.34;5050364;28;20555;-86
2023/08/18 05:01:28;;;;;;;28.52;17.58;;;18.70;99.90;;;18.97;88.56;100624.38;5033915;28;20246;-86
2023/08/18 05:03:57;;;;;;;26.40;17.00;;;18.70;99.90;;;18.94;88.59;100626.81;5034019;28;20076;-86
2023/08/18 05:06:25;;;;;;;27.58;17.60;;;18.70;99.90;;;18.92;88.64;100627.06;5026080;28;20107;-86
2023/08/18 05:08:53;;;;;;;27.30;16.92;;;18.70;99.90;;;18.94;88.27;100630.34;5032532;28;20417;-86
2023/08/18 05:11:20;;;;;;;24.48;16.98;;;18.70;99.90;;;18.93;87.83;100623.28;5030968;28;20608;-86
2023/08/18 05:13:47;;;;;;;30.20;18.17;;;18.70;99.90;;;18.86;88.41;100633.53;5030691;28;20069;-86
2023/08/18 05:16:15;;;;;;;25.67;17.23;;;18.70;99.90;;;18.88;88.43;100633.25;5049991;28;20062;-86
2023/08/18 05:18:42;;;;;;;28.42;17.67;;;18.70;99.90;;;18.86;88.20;100622.72;5050014;28;20043;-87
2023/08/18 05:21:09;;;;;;;27.33;18.13;;;18.70;99.90;;;18.76;88.73;100625.38;5048823;28;20081;-86
2023/08/18 05:23:38;;;;;;;28.35;18.05;;;18.60;99.90;;;18.78;89.00;100626.72;5047417;28;20136;-87
2023/08/18 05:26:05;;;;;;;31.80;19.20;;;18.60;99.90;;;18.72;89.73;100624.25;5033849;28;20052;-86
2023/08/18 05:28:33;;;;;;;30.88;19.10;;;18.50;99.90;;;18.73;89.45;100625.88;5045679;28;20142;-86
2023/08/18 05:31:00;;;;;;;31.70;19.02;;;18.50;99.90;;;18.71;89.71;100623.44;5049520;28;20029;-87
2023/08/18 05:33:28;;;;;;;35.45;21.90;;;18.60;99.90;;;18.74;89.29;100625.63;5051903;28;20079;-87
2023/08/18 05:35:59;;;;;;;35.97;21.80;;;18.60;99.90;;;18.69;89.71;100622.06;5032658;28;20091;-88
2023/08/18 05:38:26;;;;;;;32.70;21.13;;;18.50;99.90;;;18.59;90.00;100616.56;5033626;28;20049;-88
2023/08/18 05:41:06;;;;;;;31.25;19.80;;;18.50;99.90;;;18.58;91.07;100615.75;5044968;28;20124;-88
2023/08/18 05:43:35;;;;;;;36.08;21.60;;;18.40;99.90;;;18.56;91.20;100626.03;5050296;28;20043;-88
2023/08/18 05:46:03;;;;;;;34.17;21.30;;;18.40;99.90;;;18.62;91.55;100621.47;5023014;28;20051;-88
2023/08/18 05:48:32;;;;;;;33.40;21.75;;;18.40;99.90;;;18.65;90.97;100623.66;5047833;28;20515;-88
2023/08/18 05:50:59;;;;;;;32.42;20.58;;;18.50;99.90;;;18.62;90.47;100621.47;5032248;28;20037;-88
2023/08/18 05:53:27;;;;;;;31.55;19.85;;;18.50;99.90;;;18.59;91.09;100622.78;5032667;28;20045;-87
2023/08/18 05:55:56;;;;;;;34.10;21.30;;;18.40;99.90;;;18.64;90.75;100622.00;5025221;28;20033;-88
2023/08/18 05:58:23;;;;;;;32.50;20.70;;;18.50;99.90;;;18.70;90.43;100623.72;5029988;28;20718;-87
2023/08/18 06:00:51;;;;;;;33.78;20.15;;;18.50;99.90;;;18.69;89.66;100633.72;5032148;28;20041;-87
2023/08/18 06:03:19;;;;;;;36.92;20.75;;;18.60;99.90;;;18.71;89.97;100636.16;5025934;28;20138;-87
2023/08/18 06:05:47;;;;;;;37.28;20.90;;;18.60;99.90;;;18.71;89.87;100631.56;5042405;28;20057;-87
2023/08/18 06:08:14;;;;;;;36.70;20.77;;;18.60;99.90;;;18.69;89.81;100633.72;5019536;28;20045;-87
2023/08/18 06:10:42;;;;;;;34.25;21.52;;;18.60;99.90;;;18.67;89.86;100632.31;5045638;28;20067;-87
2023/08/18 06:13:11;;;;;;;34.83;21.30;;;18.50;99.90;;;18.56;90.92;100628.72;5029700;28;20474;-86
2023/08/18 06:15:39;;;;;;;34.10;21.30;;;18.40;99.90;;;18.59;91.68;100627.38;5028365;28;20527;-87
2023/08/18 06:18:07;;;;;;;37.42;21.55;;;18.50;99.90;;;18.62;91.30;100637.69;5024036;28;20052;-87
2023/08/18 06:20:34;;;;;;;34.50;21.52;;;18.50;99.90;;;18.64;90.88;100639.06;5044419;28;20041;-87
2023/08/18 06:23:01;;;;;;;34.70;21.08;;;18.50;99.90;;;18.63;91.02;100634.69;5043524;28;20141;-87
2023/08/18 06:25:29;;;;;;;32.78;20.20;;;18.50;99.90;;;18.68;90.66;100639.31;5052804;28;20037;-87
2023/08/18 06:27:56;;;;;;;32.45;19.20;;;18.60;99.90;;;18.70;90.31;100637.22;5034401;28;20111;-86
2023/08/18 06:30:25;;;;;;;31.17;19.10;;;18.50;99.90;;;18.71;89.98;100647.75;5040413;28;20398;-86
2023/08/18 06:32:52;;;;;;;31.55;19.10;;;18.60;99.90;;;18.72;89.83;100643.97;5040989;28;20125;-85
2023/08/18 06:35:19;;;;;;;36.17;21.13;;;18.60;99.90;;;18.63;90.00;100642.00;5037066;28;20095;-84
2023/08/18 06:37:47;;;;;;;36.65;21.48;;;18.50;99.90;;;18.67;90.82;100651.22;5043993;28;20493;-84
2023/08/18 06:40:14;;;;;;;30.70;19.05;;;18.50;99.90;;;18.69;90.20;100651.78;5050075;28;20089;-84
2023/08/18 06:42:41;;;;;;;30.45;19.00;;;18.50;99.90;;;18.71;90.53;100652.34;5037564;28;20668;-84
2023/08/18 06:45:10;;;;;;;33.08;19.88;;;18.60;99.90;;;18.73;90.33;100656.41;5048945;28;20045;-85
2023/08/18 06:47:38;;;;;;;32.60;19.58;;;18.60;99.90;;;18.76;90.88;100650.50;5037654;28;20049;-85
2023/08/18 06:50:09;;;;;;;32.47;20.02;;;18.60;99.90;;;18.83;90.58;100646.75;5042794;28;20422;-85
2023/08/18 06:52:37;;;;;;;34.60;20.02;;;18.60;99.90;;;18.83;90.13;100644.84;5045296;28;20094;-85
2023/08/18 06:55:05;;;;;;;32.13;18.80;;;18.60;99.90;;;18.84;89.93;100646.50;5045330;28;20500;-84
2023/08/18 06:57:32;;;;;;;31.50;18.10;;;18.70;99.90;;;18.83;90.17;100649.44;5051393;28;20049;-85
2023/08/18 06:59:59;;;;;;;32.40;18.23;;;18.60;99.90;;;18.75;90.55;100656.16;5045463;28;20091;-85
2023/08/18 07:02:27;;;;;;;29.38;17.70;;;18.60;99.90;;;18.71;91.40;100650.47;5008033;28;20095;-85
2023/08/18 07:04:56;;;;;;;33.80;19.05;;;18.60;99.90;;;18.78;90.97;100650.22;5054271;28;20452;-84
2023/08/18 07:07:23;;;;;;;27.83;18.17;;;18.60;99.90;;;18.70;90.86;100645.34;5046941;28;20409;-85
2023/08/18 07:09:50;;;;;;;30.30;17.58;;;18.60;99.90;;;18.70;91.32;100645.34;5045373;28;20095;-84
2023/08/18 07:12:18;;;;;;;26.33;16.83;;;18.60;99.90;;;18.75;91.19;100648.06;5043643;28;20040;-86
2023/08/18 07:14:46;;;;;;;28.20;17.00;;;18.70;99.90;;;18.77;91.30;100638.59;5052810;28;20049;-87
2023/08/18 07:17:13;;;;;;;26.25;16.20;;;18.70;99.90;;;18.86;91.02;100649.75;5051171;28;20055;-89
2023/08/18 07:20:15;;;;;;;25.23;14.07;;;18.70;99.90;;;18.95;90.94;100648.19;5034409;28;20094;-89
2023/08/18 07:22:43;;;;;;;21.38;13.88;;;18.80;99.90;;;18.96;90.04;100648.97;5049204;28;20143;-89
2023/08/18 07:25:13;;;;;;;20.10;13.20;;;18.80;99.90;;;18.99;89.50;100657.38;5052350;28;20049;-89
2023/08/18 07:27:40;;;;;;;19.07;13.13;;;18.90;99.90;;;19.01;89.34;100649.81;5034778;28;20073;-89
2023/08/18 07:30:09;;;;;;;15.82;10.95;;;18.90;99.90;;;19.06;89.47;100653.63;5030985;28;20059;-89
2023/08/18 07:32:36;;;;;;;20.92;14.32;;;18.90;99.90;;;19.04;88.72;100659.31;5035292;28;20037;-89
2023/08/18 07:35:08;;;;;;;22.23;14.52;;;18.90;99.90;;;19.03;88.56;100649.56;5027790;28;20052;-89
2023/08/18 07:37:37;;;;;;;21.45;13.52;;;18.90;99.90;;;19.03;87.89;100661.19;5060408;28;20048;-89
2023/08/18 07:40:09;;;;;;;19.88;12.57;;;18.90;99.90;;;19.03;88.07;100652.25;5044145;28;20052;-88
2023/08/18 07:42:36;;;;;;;22.30;14.63;;;19.00;99.90;;;19.00;88.14;100659.00;5045886;28;20091;-89
2023/08/18 07:45:04;;;;;;;22.73;15.20;;;18.90;99.90;;;19.00;88.20;100645.50;5045576;28;20559;-89
2023/08/18 07:47:32;;;;;;;19.80;13.25;;;18.90;99.90;;;19.03;88.43;100644.97;5049905;28;20499;-88
2023/08/18 07:49:59;;;;;;;20.85;13.57;;;19.00;99.90;;;19.03;87.97;100641.44;5027727;28;20049;-88
2023/08/18 07:52:26;;;;;;;22.30;14.23;;;19.00;99.90;;;19.02;87.80;100642.53;5018366;28;20411;-88
2023/08/18 07:54:55;;;;;;;20.73;13.45;;;19.00;99.90;;;19.03;88.26;100634.16;5029419;28;20103;-88
2023/08/18 07:57:22;;;;;;;19.73;14.15;;;19.00;99.90;;;19.10;88.07;100638.50;5034322;28;20075;-88
2023/08/18 07:59:50;;;;;;;20.33;14.07;;;19.10;99.90;;;19.10;88.45;100628.50;5034213;28;20136;-88
2023/08/18 08:02:17;;;;;;;18.25;12.82;;;19.10;99.90;;;19.16;88.54;100627.44;5051833;28;20041;-88
2023/08/18 08:04:45;;;;;;;15.00;11.07;;;19.10;99.90;;;19.22;88.22;100642.59;5034541;28;20179;-88
2023/08/18 08:07:12;;;;;;;19.88;12.25;;;19.20;99.90;;;19.25;87.60;100636.69;5042277;28;20045;-88
2023/08/18 08:09:39;;;;;;;19.58;12.65;;;19.20;99.90;;;19.23;87.68;100638.84;5048689;28;20528;-88
2023/08/18 08:12:09;;;;;;;15.32;11.63;;;19.20;99.90;;;19.27;88.20;100645.34;5051827;28;20128;-88
2023/08/18 08:14:36;;;;;;;17.90;11.93;;;19.20;99.90;;;19.30;87.97;100633.19;5040918;28;20094;-88
2023/08/18 08:17:04;;;;;;;17.67;12.02;;;19.20;99.90;;;19.32;87.17;100641.84;5043685;28;20069;-88
2023/08/18 08:19:31;;;;;;;18.55;11.27;;;19.30;99.90;;;19.29;86.89;100642.38;5034746;28;20111;-88
2023/08/18 08:21:59;;;;;;;18.95;12.15;;;19.30;99.90;;;19.33;87.61;100631.84;5032754;28;20148;-88
2023/08/18 08:24:29;;;;;;;17.38;11.85;;;19.30;99.90;;;19.30;86.96;100636.69;5043481;28;20055;-88
2023/08/18 08:26:56;;;;;;;20.58;12.75;;;19.30;99.90;;;19.31;87.32;100634.81;5031231;28;20048;-88
2023/08/18 08:29:25;;;;;;;17.85;12.63;;;19.30;99.90;;;19.32;87.48;100644.53;5048373;28;20040;-87
2023/08/18 08:31:53;;;;;;;21.73;13.15;;;19.30;99.90;;;19.37;88.14;100649.16;5060148;28;20072;-88
2023/08/18 08:34:20;;;;;;;18.40;13.43;;;19.40;99.90;;;19.40;87.39;100649.44;5051395;28;20505;-88
2023/08/18 08:36:47;;;;;;;19.17;12.73;;;19.40;99.90;;;19.42;87.25;100641.06;5034587;28;20056;-88
2023/08/18 08:39:14;;;;;;;17.42;13.20;;;19.50;99.90;;;19.47;87.55;100647.31;5028799;28;20076;-87
2023/08/18 08:41:42;;;;;;;21.10;14.93;;;19.50;99.90;;;19.51;87.84;100634.88;5026824;28;20509;-87
2023/08/18 08:44:09;;;;;;;20.83;13.98;;;19.50;99.90;;;19.56;87.57;100640.28;5034875;28;20045;-88
2023/08/18 08:46:40;;;;;;;19.95;14.05;;;19.60;99.90;;;19.63;88.21;100639.28;5051458;28;20075;-89
2023/08/18 08:49:09;;;;;;;20.23;14.90;;;19.70;99.90;;;19.70;88.02;100642.53;5008438;28;20044;-87
2023/08/18 08:51:40;;;;;;;19.23;14.38;;;19.70;99.90;;;19.71;88.16;100644.94;5037639;28;20076;-90
2023/08/18 08:54:11;;;;;;;21.45;15.48;;;19.80;99.90;;;19.73;87.27;100642.00;5056686;28;20068;-88
2023/08/18 08:56:41;;;;;;;24.90;15.00;;;19.80;99.90;;;19.76;87.03;100641.44;5028507;28;20100;-88
2023/08/18 08:59:09;;;;;;;20.35;15.05;;;19.80;99.90;;;19.80;88.33;100647.94;5048710;28;20431;-88
2023/08/18 09:01:38;;;;;;;18.83;15.20;;;19.90;99.90;;;19.84;88.77;100638.22;5048403;28;20120;-87
2023/08/18 09:04:06;;;;;;;17.65;14.02;;;20.00;99.90;;;19.88;87.47;100644.72;5047182;28;20069;-87
2023/08/18 09:06:34;;;;;;;19.27;13.57;;;20.00;99.90;;;19.93;87.00;100635.81;5033608;28;20087;-87
2023/08/18 09:09:01;;;;;;;16.88;13.38;;;20.00;99.90;;;19.98;87.18;100641.22;5031416;28;20451;-88
2023/08/18 09:11:45;;;;;;;17.67;14.32;;;20.10;99.90;;;20.01;87.36;100638.78;5049751;28;20076;-88
2023/08/18 09:14:13;;;;;;;19.00;14.23;;;20.10;99.90;;;20.00;86.15;100629.03;5031310;28;20441;-87
2023/08/18 09:16:44;;;;;;;15.88;12.52;;;20.10;99.90;;;20.06;86.25;100641.50;5034305;28;20525;-87
2023/08/18 09:19:13;;;;;;;16.75;12.85;;;20.20;99.90;;;20.10;86.58;100636.34;5031399;28;20042;-88
2023/08/18 09:21:40;;;;;;;17.52;13.25;;;20.20;99.90;;;20.13;86.51;100640.41;5044816;28;20040;-88
2023/08/18 09:24:08;;;;;;;18.42;14.25;;;20.30;99.90;;;20.13;86.03;100635.81;5049597;28;20043;-88
2023/08/18 09:26:36;;;;;;;17.08;13.35;;;20.30;99.90;;;20.15;85.56;100632.81;5034192;28;20068;-88
2023/08/18 09:29:04;;;;;;;20.75;13.55;;;20.30;99.90;;;20.21;85.78;100626.34;5046879;28;20044;-87
2023/08/18 09:31:31;;;;;;;15.48;11.65;;;20.40;99.90;;;20.27;86.24;100617.13;5043735;28;20045;-87
2023/08/18 09:34:02;;;;;;;17.85;12.73;;;20.50;99.90;;;20.31;85.98;100620.91;5050195;28;20132;-87
2023/08/18 09:36:31;;;;;;;18.02;14.27;;;20.50;99.90;;;20.37;85.91;100611.69;5034141;28;20502;-87
2023/08/18 09:39:04;;;;;;;18.17;13.88;;;20.50;99.90;;;20.42;85.72;100614.41;5024731;28;20099;-86
2023/08/18 09:41:33;;;;;;;17.92;14.48;;;20.60;99.90;;;20.49;86.39;100606.81;5032973;28;20040;-87
2023/08/18 09:44:01;;;;;;;19.95;15.52;;;20.70;99.90;;;20.54;85.43;100622.25;5031309;28;20049;-87
2023/08/18 09:46:32;;;;;;;19.80;16.08;;;20.80;99.90;;;20.58;85.67;100605.19;5042053;28;20084;-87
2023/08/18 09:49:01;;;;;;;20.33;16.30;;;20.90;99.90;;;20.61;84.51;100605.72;5031360;28;20048;-87
2023/08/18 09:51:29;;;;;;;21.75;15.50;;;20.90;99.90;;;20.61;84.24;100603.03;5042874;28;20033;-87
2023/08/18 09:54:03;;;;;;;17.67;14.52;;;20.90;99.90;;;20.65;84.53;100599.50;5046944;28;20076;-87
2023/08/18 09:56:36;;;;;;;16.90;13.48;;;20.90;99.90;;;20.73;85.88;100596.19;5047927;28;20087;-87
2023/08/18 09:59:13;;;;;;;15.73;11.80;;;21.00;99.90;;;20.70;83.36;100595.94;5044784;28;20057;-89
2023/08/18 10:01:42;;;;;;;17.30;13.25;;;21.00;99.90;;;20.71;83.14;100603.00;5027987;28;20885;-88
2023/08/18 10:04:12;;;;;;;17.05;13.07;;;21.00;99.90;;;20.64;82.96;100602.44;5029838;28;20128;-89
2023/08/18 10:06:41;;;;;;;17.83;13.10;;;20.90;99.90;;;20.68;84.39;100600.81;5022704;28;20498;-89